Time;durP1;ratioP1;P1;durP2;ratioP2;P2;SDS_P1;SDS_P2;PMS_P1;PMS_P2;Temp;Humidity;BMP_temperature;BMP_pressure;BME280_temperature;BME280_humidity;BME280_pressure;Samples;Min_cycle;Max_cycle;Signal;HPM_P1;HPM_P2
2023/10/12 01:31:07;;;;;;;5.55;3.03;;;;;;;;;;10718360;23;20053;-77
2023/10/12 01:41:51;;;;;;;2.47;1.80;;;;;;;;;;10651016;22;20086;-76
2023/10/12 01:46:56;;;;;;;6.55;2.30;;;;;;;;;;10385382;28;20073;-77
2023/10/12 01:52:03;;;;;;;4.43;1.60;;;;;;;;;;10362737;28;20042;-77
2023/10/12 01:57:06;;;;;;;2.50;1.48;;;;;;;;;;10343922;28;20070;-76
2023/10/12 02:02:14;;;;;;;3.80;1.85;;;;;;;;;;10351542;28;20049;-77
2023/10/12 02:07:17;;;;;;;2.67;1.50;;;;;;;;;;10333222;28;20575;-76
2023/10/12 02:12:25;;;;;;;6.07;2.05;;;;;;;;;;10372245;28;20325;-77
2023/10/12 02:17:29;;;;;;;4.63;2.10;;;;;;;;;;10366763;28;20042;-77
2023/10/12 02:22:38;;;;;;;2.70;1.55;;;;;;;;;;10365663;28;20641;-77
2023/10/12 02:27:43;;;;;;;3.08;1.70;;;;;;;;;;10345741;28;20270;-77
2023/10/12 02:32:50;;;;;;;4.15;2.10;;;;;;;;;;10362061;28;20452;-77
2023/10/12 02:37:54;;;;;;;4.80;2.10;;;;;;;;;;10365702;28;20072;-77
2023/10/12 02:42:59;;;;;;;4.20;1.90;;;;;;;;;;10355769;28;20395;-77
2023/10/12 02:48:05;;;;;;;4.53;1.80;;;;;;;;;;10352241;28;20128;-77
2023/10/12 02:53:12;;;;;;;3.28;1.73;;;;;;;;;;10367601;28;20045;-76
2023/10/12 02:58:20;;;;;;;4.82;2.10;;;;;;;;;;10348274;28;20049;-77
2023/10/12 03:03:38;;;;;;;4.90;2.22;;;;;;;;;;10367235;28;20096;-77
2023/10/12 03:09:01;;;;;;;4.20;1.90;;;;;;;;;;10340763;28;20554;-77
2023/10/12 03:14:13;;;;;;;5.03;2.00;;;;;;;;;;10363743;28;20470;-77
2023/10/12 03:19:25;;;;;;;3.95;1.50;;;;;;;;;;10359862;28;20060;-77
2023/10/12 03:24:43;;;;;;;1.88;1.27;;;;;;;;;;10358664;28;20066;-77
2023/10/12 03:29:54;;;;;;;3.83;1.35;;;;;;;;;;10361450;28;20068;-77
2023/10/12 03:34:59;;;;;;;3.65;1.65;;;;;;;;;;10362274;28;20048;-76
2023/10/12 03:40:23;;;;;;;2.85;1.65;;;;;;;;;;10358819;28;20046;-76
2023/10/12 03:45:27;;;;;;;4.63;1.55;;;;;;;;;;10334617;28;20144;-77
2023/10/12 03:50:51;;;;;;;2.50;1.58;;;;;;;;;;10363672;28;20169;-77
2023/10/12 03:55:58;;;;;;;4.13;1.45;;;;;;;;;;10346577;28;20688;-77
2023/10/12 04:01:12;;;;;;;4.20;1.73;;;;;;;;;;10356844;28;20075;-77
2023/10/12 04:06:23;;;;;;;3.42;1.90;;;;;;;;;;10365788;28;20430;-77
2023/10/12 04:17:07;;;;;;;5.47;1.75;;;;;;;;;;10354046;28;20053;-77
2023/10/12 04:22:25;;;;;;;4.35;1.58;;;;;;;;;;10366496;28;20295;-77
2023/10/12 04:27:44;;;;;;;5.22;1.50;;;;;;;;;;10359995;28;20096;-76
2023/10/12 04:32:57;;;;;;;3.22;1.75;;;;;;;;;;10362240;28;20084;-76
2023/10/12 04:38:08;;;;;;;4.00;1.80;;;;;;;;;;10365800;28;20046;-77
2023/10/12 04:43:23;;;;;;;3.47;1.83;;;;;;;;;;10361372;28;20046;-77
2023/10/12 04:48:31;;;;;;;3.33;2.00;;;;;;;;;;10363296;28;20511;-76
2023/10/12 04:53:53;;;;;;;4.47;1.95;;;;;;;;;;10362489;28;20069;-77
2023/10/12 04:58:59;;;;;;;4.20;2.08;;;;;;;;;;10365668;28;20049;-77
2023/10/12 05:04:09;;;;;;;3.53;2.22;;;;;;;;;;10338749;28;20138;-75
2023/10/12 05:09:18;;;;;;;4.10;2.20;;;;;;;;;;10349146;28;20119;-76
2023/10/12 05:14:22;;;;;;;2.75;1.38;;;;;;;;;;10371049;28;20141;-77
2023/10/12 05:19:26;;;;;;;6.72;1.95;;;;;;;;;;10365171;28;20491;-77
2023/10/12 05:24:32;;;;;;;4.00;1.77;;;;;;;;;;10345955;28;20054;-77
2023/10/12 05:29:38;;;;;;;3.42;1.60;;;;;;;;;;10361499;28;20066;-76
2023/10/12 05:34:52;;;;;;;2.28;1.23;;;;;;;;;;10368570;28;20056;-77
2023/10/12 05:39:59;;;;;;;3.75;1.98;;;;;;;;;;10368015;28;20104;-76
2023/10/12 05:45:19;;;;;;;3.20;1.58;;;;;;;;;;10356530;28;20589;-76
2023/10/12 05:50:24;;;;;;;2.20;1.73;;;;;;;;;;10360644;28;20052;-77
2023/10/12 05:55:33;;;;;;;4.63;1.80;;;;;;;;;;10350591;28;20462;-77
2023/10/12 06:00:36;;;;;;;4.00;1.90;;;;;;;;;;10377406;28;20064;-77
2023/10/12 06:05:40;;;;;;;7.93;1.90;;;;;;;;;;10371394;28;20058;-76
2023/10/12 06:10:46;;;;;;;4.38;2.22;;;;;;;;;;10369070;28;20131;-77
2023/10/12 06:15:53;;;;;;;2.85;1.80;;;;;;;;;;10340031;28;20065;-77
2023/10/12 06:20:59;;;;;;;2.83;1.80;;;;;;;;;;10357035;28;20527;-77
2023/10/12 06:26:08;;;;;;;3.67;1.80;;;;;;;;;;10364966;28;20525;-77
2023/10/12 06:31:11;;;;;;;3.00;1.98;;;;;;;;;;10350334;28;20052;-77
2023/10/12 06:36:22;;;;;;;7.07;2.93;;;;;;;;;;10366224;28;20631;-77
2023/10/12 06:41:58;;;;;;;2.92;1.95;;;;;;;;;;10354881;28;20823;-77
2023/10/12 06:46:58;;;;;;;5.10;2.22;;;;;;;;;;10351545;28;20050;-76
2023/10/12 06:52:01;;;;;;;10.95;2.30;;;;;;;;;;10353597;28;20645;-77
2023/10/12 07:02:29;;;;;;;4.35;2.35;;;;;;;;;;10359566;28;20046;-77
2023/10/12 07:07:40;;;;;;;2.85;1.73;;;;;;;;;;10360475;28;20042;-77
2023/10/12 07:12:48;;;;;;;2.20;1.80;;;;;;;;;;10348141;28;20434;-77
2023/10/12 07:17:52;;;;;;;3.85;2.03;;;;;;;;;;10343442;28;20580;-78
2023/10/12 07:22:56;;;;;;;5.40;1.85;;;;;;;;;;10344951;28;20140;-78
2023/10/12 07:28:00;;;;;;;5.13;2.05;;;;;;;;;;10365663;28;20386;-78
2023/10/12 07:33:04;;;;;;;4.32;1.83;;;;;;;;;;10367252;28;20133;-78
2023/10/12 07:38:12;;;;;;;3.42;1.80;;;;;;;;;;10364507;28;20042;-78
2023/10/12 07:54:58;;;;;;;2.20;1.55;;;;;;;;;;10359408;28;20161;-89
2023/10/12 08:05:43;;;;;;;1.83;1.52;;;;;;;;;;10334320;28;20071;-90
2023/10/12 08:10:56;;;;;;;3.17;1.65;;;;;;;;;;10362128;28;20046;-89
2023/10/12 08:16:03;;;;;;;3.15;1.85;;;;;;;;;;10347344;28;20050;-90
2023/10/12 08:21:17;;;;;;;4.70;1.98;;;;;;;;;;10351557;28;20049;-90
2023/10/12 08:26:35;;;;;;;3.42;2.13;;;;;;;;;;10352366;28;20488;-90
2023/10/12 08:31:43;;;;;;;4.72;2.28;;;;;;;;;;10351740;28;20096;-90
2023/10/12 08:37:17;;;;;;;3.28;2.08;;;;;;;;;;10351676;28;20054;-90
2023/10/12 08:42:36;;;;;;;4.28;2.20;;;;;;;;;;10351383;28;20058;-89
2023/10/12 08:47:48;;;;;;;5.13;2.20;;;;;;;;;;10354881;28;20535;-90
2023/10/12 08:52:53;;;;;;;6.00;2.33;;;;;;;;;;10350497;28;20065;-90
2023/10/12 08:58:11;;;;;;;3.45;2.03;;;;;;;;;;10350562;28;20046;-90
2023/10/12 09:03:24;;;;;;;4.28;2.20;;;;;;;;;;10367775;28;20581;-90
2023/10/12 09:08:41;;;;;;;4.75;1.90;;;;;;;;;;10363914;28;20072;-90
2023/10/12 09:13:46;;;;;;;3.33;2.03;;;;;;;;;;10347205;28;20464;-90
2023/10/12 09:18:57;;;;;;;4.85;2.30;;;;;;;;;;10344568;28;20116;-90
2023/10/12 09:24:06;;;;;;;3.92;1.90;;;;;;;;;;10365529;28;20060;-90
2023/10/12 09:29:21;;;;;;;3.15;2.03;;;;;;;;;;10349351;28;20073;-90
2023/10/12 09:34:43;;;;;;;3.55;2.13;;;;;;;;;;10348699;28;20103;-90
2023/10/12 09:39:48;;;;;;;4.28;2.50;;;;;;;;;;10366293;28;20049;-90
2023/10/12 09:45:01;;;;;;;4.30;2.10;;;;;;;;;;10344774;28;20583;-90
2023/10/12 09:50:13;;;;;;;6.82;2.25;;;;;;;;;;10342506;28;20049;-89
2023/10/12 09:55:25;;;;;;;3.97;2.00;;;;;;;;;;10348739;28;20049;-89
2023/10/12 10:00:55;;;;;;;5.78;2.00;;;;;;;;;;10348497;28;21169;-89
2023/10/12 10:06:03;;;;;;;3.22;1.80;;;;;;;;;;10362493;28;20054;-90
2023/10/12 10:11:11;;;;;;;3.72;2.13;;;;;;;;;;10346696;28;20085;-89
2023/10/12 10:16:17;;;;;;;3.13;2.10;;;;;;;;;;10342589;28;20042;-89
2023/10/12 10:21:22;;;;;;;6.75;2.65;;;;;;;;;;10347853;28;20402;-89
2023/10/12 10:26:31;;;;;;;4.95;2.47;;;;;;;;;;10347750;28;20085;-90
2023/10/12 10:31:41;;;;;;;4.82;2.35;;;;;;;;;;10347503;28;20448;-90
2023/10/12 10:36:52;;;;;;;3.05;1.83;;;;;;;;;;10346561;28;20521;-89
2023/10/12 10:42:00;;;;;;;3.40;1.75;;;;;;;;;;10364713;28;20046;-89
2023/10/12 10:47:07;;;;;;;3.40;1.98;;;;;;;;;;10330882;28;20054;-89
2023/10/12 10:52:20;;;;;;;;;;;;;;;;;;10347252;28;20480;-89
2023/10/12 11:11:25;;;;;;;4.32;2.08;;;;;;;;;;10127202;29;20762;-91
2023/10/12 11:16:30;;;;;;;4.38;2.45;;;;;;;;;;10191050;28;20066;-91
2023/10/12 11:21:34;;;;;;;5.00;2.20;;;;;;;;;;10320821;28;20053;-90
2023/10/12 11:26:52;;;;;;;3.05;2.00;;;;;;;;;;10346797;28;20046;-90
2023/10/12 11:32:08;;;;;;;4.45;2.20;;;;;;;;;;10318903;28;20093;-91
2023/10/12 11:37:13;;;;;;;7.10;3.00;;;;;;;;;;10315685;28;20050;-91
2023/10/12 11:42:17;;;;;;;4.13;2.50;;;;;;;;;;10308692;28;20046;-89
2023/10/12 11:54:19;;;;;;;4.13;2.20;;;;;;;;;;10225160;28;20164;-90
2023/10/12 12:00:21;;;;;;;3.92;2.00;;;;;;;;;;10342653;28;20046;-90
2023/10/12 12:05:37;;;;;;;2.85;2.00;;;;;;;;;;10331673;28;20046;-90
2023/10/12 12:10:46;;;;;;;4.32;2.10;;;;;;;;;;10328510;28;20403;-90
2023/10/12 12:15:50;;;;;;;6.45;2.35;;;;;;;;;;10334889;28;20288;-90
2023/10/12 12:20:56;;;;;;;7.72;3.55;;;;;;;;;;10327795;28;20054;-90
2023/10/12 12:26:07;;;;;;;5.72;3.05;;;;;;;;;;10338174;28;20054;-89
2023/10/12 12:31:36;;;;;;;;;;;;;;;;;;;;;
2023/10/12 12:42:25;;;;;;;4.40;2.72;;;;;;;;;;10311971;28;20598;-88
2023/10/12 12:47:32;;;;;;;3.47;2.40;;;;;;;;;;10311019;28;20056;-88
2023/10/12 12:52:48;;;;;;;6.47;2.83;;;;;;;;;;10312856;28;21424;-89
2023/10/12 12:58:14;;;;;;;6.80;2.45;;;;;;;;;;10330457;28;20053;-89
2023/10/12 13:03:18;;;;;;;7.13;2.50;;;;;;;;;;10327971;28;20398;-88
2023/10/12 13:08:22;;;;;;;4.22;2.30;;;;;;;;;;10348288;28;20115;-89
2023/10/12 13:13:27;;;;;;;6.10;2.15;;;;;;;;;;10336054;28;20048;-92
2023/10/12 13:18:32;;;;;;;5.35;2.72;;;;;;;;;;10337414;28;20049;-92
2023/10/12 13:23:36;;;;;;;7.05;2.50;;;;;;;;;;10358561;28;20138;-91
2023/10/12 13:28:41;;;;;;;5.28;2.30;;;;;;;;;;10321284;28;20141;-92
2023/10/12 13:33:47;;;;;;;5.72;2.42;;;;;;;;;;10334286;28;20618;-92
2023/10/12 13:38:51;;;;;;;2.23;1.63;;;;;;;;;;10337159;28;20054;-91
2023/10/12 13:43:56;;;;;;;3.67;1.80;;;;;;;;;;10337699;23;20108;-78
2023/10/12 13:49:02;;;;;;;4.38;1.80;;;;;;;;;;10351227;28;20058;-77
2023/10/12 13:54:06;;;;;;;3.13;1.90;;;;;;;;;;10364002;28;20562;-78
2023/10/12 13:59:14;;;;;;;2.58;1.60;;;;;;;;;;10362034;28;20455;-78
2023/10/12 14:04:28;;;;;;;4.93;1.65;;;;;;;;;;10343284;28;20063;-79
2023/10/12 14:09:32;;;;;;;5.03;1.90;;;;;;;;;;10354875;28;20391;-78
2023/10/12 14:14:36;;;;;;;3.85;1.50;;;;;;;;;;10365360;28;20062;-79
2023/10/12 14:19:40;;;;;;;5.82;1.63;;;;;;;;;;10340997;28;20045;-79
2023/10/12 14:24:47;;;;;;;4.13;1.70;;;;;;;;;;10361247;28;20111;-78
2023/10/12 14:29:52;;;;;;;3.60;1.55;;;;;;;;;;10362461;28;20043;-78
2023/10/12 14:34:56;;;;;;;3.72;2.10;;;;;;;;;;10361303;28;20128;-78
2023/10/12 14:39:59;;;;;;;6.28;2.10;;;;;;;;;;10368027;28;20524;-79
2023/10/12 14:45:06;;;;;;;5.22;2.50;;;;;;;;;;10345729;28;20121;-78
2023/10/12 14:50:16;;;;;;;3.40;1.90;;;;;;;;;;10350743;28;20052;-79
2023/10/12 14:55:20;;;;;;;4.18;2.10;;;;;;;;;;10349414;28;20136;-78
2023/10/12 15:00:25;;;;;;;4.00;2.33;;;;;;;;;;10355404;28;20058;-79
2023/10/12 15:05:30;;;;;;;5.28;2.70;;;;;;;;;;10343714;28;20134;-79
2023/10/12 15:10:36;;;;;;;6.37;2.93;;;;;;;;;;10337245;28;20037;-78
2023/10/12 15:15:45;;;;;;;2.47;1.65;;;;;;;;;;10365114;28;20296;-79
2023/10/12 15:20:53;;;;;;;1.50;1.35;;;;;;;;;;10360597;28;20455;-79
2023/10/12 15:26:01;;;;;;;6.43;2.67;;;;;;;;;;10356026;28;20038;-78
2023/10/12 15:31:08;;;;;;;3.47;2.13;;;;;;;;;;10342739;28;20038;-79
2023/10/12 15:36:16;;;;;;;7.07;2.63;;;;;;;;;;10358535;28;20096;-78
2023/10/12 15:41:20;;;;;;;2.63;1.88;;;;;;;;;;10347248;28;20048;-78
2023/10/12 15:46:25;;;;;;;3.10;1.77;;;;;;;;;;10338727;28;20058;-79
2023/10/12 15:51:28;;;;;;;4.07;2.00;;;;;;;;;;10327433;28;20129;-79
2023/10/12 15:56:32;;;;;;;4.63;2.40;;;;;;;;;;10340939;28;20054;-78
2023/10/12 16:01:37;;;;;;;7.78;2.60;;;;;;;;;;10340645;28;20046;-78
2023/10/12 16:06:40;;;;;;;3.50;1.90;;;;;;;;;;10335633;28;20079;-78
2023/10/12 16:11:44;;;;;;;3.22;2.15;;;;;;;;;;10363973;28;20049;-78
2023/10/12 16:16:50;;;;;;;4.40;2.20;;;;;;;;;;10357614;28;20050;-78
2023/10/12 16:21:55;;;;;;;;;;;;;;;;;;10356672;28;20042;-78
2023/10/12 16:26:59;;;;;;;2.13;1.42;;;;;;;;;;10356717;28;20414;-78
2023/10/12 16:32:04;;;;;;;4.13;1.75;;;;;;;;;;10352947;28;20038;-79
2023/10/12 16:37:07;;;;;;;5.15;1.70;;;;;;;;;;10348834;28;20470;-79
2023/10/12 16:42:11;;;;;;;3.25;1.92;;;;;;;;;;10372461;28;20042;-79
2023/10/12 16:47:17;;;;;;;4.45;2.28;;;;;;;;;;10349018;28;20150;-78
2023/10/12 16:52:21;;;;;;;9.77;3.10;;;;;;;;;;10365442;28;20045;-78
2023/10/12 16:57:24;;;;;;;3.63;2.58;;;;;;;;;;10368304;28;20042;-78
2023/10/12 17:02:33;;;;;;;4.28;2.55;;;;;;;;;;10361145;28;20569;-78
2023/10/12 17:07:36;;;;;;;4.05;1.88;;;;;;;;;;10359990;28;20072;-78
2023/10/12 17:12:39;;;;;;;2.83;1.90;;;;;;;;;;10367810;28;20042;-78
2023/10/12 17:17:44;;;;;;;5.43;1.90;;;;;;;;;;10369827;28;20050;-78
2023/10/12 17:22:47;;;;;;;2.88;1.75;;;;;;;;;;10352374;28;20050;-78
2023/10/12 17:27:52;;;;;;;4.55;2.17;;;;;;;;;;10351314;28;20055;-78
2023/10/12 17:32:57;;;;;;;5.13;2.43;;;;;;;;;;10356777;28;20141;-78
2023/10/12 17:38:02;;;;;;;3.92;2.28;;;;;;;;;;10361032;28;20056;-78
2023/10/12 17:43:05;;;;;;;3.95;1.88;;;;;;;;;;10359208;28;20483;-79
2023/10/12 17:48:10;;;;;;;3.78;2.13;;;;;;;;;;10340858;28;20054;-78
2023/10/12 17:53:14;;;;;;;6.38;2.40;;;;;;;;;;10363719;28;20503;-78
2023/10/12 17:58:17;;;;;;;4.63;2.22;;;;;;;;;;10369032;28;20160;-78
2023/10/12 18:03:22;;;;;;;10.00;3.15;;;;;;;;;;10363544;28;20052;-79
2023/10/12 18:08:26;;;;;;;7.78;3.03;;;;;;;;;;10363756;28;20077;-78
2023/10/12 18:13:33;;;;;;;5.22;2.50;;;;;;;;;;10357576;28;20066;-78
2023/10/12 18:18:38;;;;;;;6.60;3.15;;;;;;;;;;10361289;28;20097;-78
2023/10/12 18:23:41;;;;;;;5.05;2.75;;;;;;;;;;10338267;28;20057;-78
2023/10/12 18:28:47;;;;;;;7.65;3.15;;;;;;;;;;10361075;28;20053;-78
2023/10/12 18:33:52;;;;;;;6.82;2.80;;;;;;;;;;10353305;28;20149;-78
2023/10/12 18:38:55;;;;;;;3.95;2.55;;;;;;;;;;10363407;28;20069;-78
2023/10/12 18:43:58;;;;;;;8.43;2.75;;;;;;;;;;10337168;28;20046;-79
2023/10/12 18:49:04;;;;;;;4.45;2.47;;;;;;;;;;10367936;28;20068;-79
2023/10/12 18:54:08;;;;;;;4.55;2.20;;;;;;;;;;10362543;28;20161;-79
2023/10/12 18:59:11;;;;;;;5.07;2.35;;;;;;;;;;10344081;28;20499;-79
2023/10/12 19:04:16;;;;;;;4.22;2.10;;;;;;;;;;10359470;28;20121;-79
2023/10/12 19:09:21;;;;;;;3.67;2.10;;;;;;;;;;10349600;28;20141;-78
2023/10/12 19:14:25;;;;;;;9.00;3.78;;;;;;;;;;10357346;28;20038;-79
2023/10/12 19:19:29;;;;;;;6.43;3.22;;;;;;;;;;10358315;28;20117;-79
2023/10/12 19:24:33;;;;;;;4.95;2.40;;;;;;;;;;10341486;28;20057;-79
2023/10/12 19:29:38;;;;;;;2.45;1.75;;;;;;;;;;10357607;28;20052;-78
2023/10/12 19:34:42;;;;;;;2.78;1.73;;;;;;;;;;10358538;28;20056;-78
2023/10/12 19:39:45;;;;;;;2.78;1.90;;;;;;;;;;10359669;28;20050;-80
2023/10/12 19:44:49;;;;;;;5.07;2.33;;;;;;;;;;11229803;22;20148;-89
2023/10/12 19:49:54;;;;;;;2.40;1.45;;;;;;;;;;10387850;28;20045;-88
2023/10/12 19:55:00;;;;;;;4.17;2.20;;;;;;;;;;10357048;28;20050;-88
2023/10/12 20:00:23;;;;;;;2.75;1.30;;;;;;;;;;10367698;28;20045;-88
2023/10/12 20:05:29;;;;;;;3.17;1.70;;;;;;;;;;10358071;28;20128;-88
2023/10/12 20:10:34;;;;;;;4.28;1.92;;;;;;;;;;10366731;28;20283;-88
2023/10/12 20:15:37;;;;;;;3.40;1.85;;;;;;;;;;10360757;28;20038;-88
2023/10/12 20:20:43;;;;;;;3.05;1.60;;;;;;;;;;10379046;28;20423;-86
2023/10/12 20:25:48;;;;;;;3.42;1.42;;;;;;;;;;10369451;28;20129;-89
2023/10/12 20:30:54;;;;;;;3.55;1.67;;;;;;;;;;10391377;28;20054;-88
2023/10/12 20:36:26;;;;;;;2.00;1.40;;;;;;;;;;10373349;28;20045;-88
2023/10/12 20:41:31;;;;;;;3.80;1.60;;;;;;;;;;10378257;28;20049;-87
2023/10/12 20:46:38;;;;;;;2.65;1.70;;;;;;;;;;10377876;28;20049;-88
2023/10/12 20:51:43;;;;;;;3.00;1.30;;;;;;;;;;10388287;28;20056;-88
2023/10/12 20:56:47;;;;;;;3.00;1.52;;;;;;;;;;10369669;28;20054;-88
2023/10/12 21:02:00;;;;;;;4.15;1.70;;;;;;;;;;10387168;28;20065;-87
2023/10/12 21:07:05;;;;;;;2.42;1.35;;;;;;;;;;10373482;28;20124;-88
2023/10/12 21:12:14;;;;;;;3.50;1.88;;;;;;;;;;10393298;28;20053;-89
2023/10/12 21:17:31;;;;;;;2.40;1.20;;;;;;;;;;10371497;28;20500;-88
2023/10/12 21:22:37;;;;;;;2.15;1.40;;;;;;;;;;10382184;28;20046;-89
2023/10/12 21:27:45;;;;;;;1.83;1.40;;;;;;;;;;10360118;28;20550;-88
2023/10/12 21:32:48;;;;;;;3.58;1.65;;;;;;;;;;10376259;28;20056;-88
2023/10/12 21:37:53;;;;;;;4.32;1.95;;;;;;;;;;10389669;28;20061;-88
2023/10/12 21:43:06;;;;;;;2.58;1.50;;;;;;;;;;10390094;28;20430;-88
2023/10/12 21:48:13;;;;;;;4.07;1.75;;;;;;;;;;10362885;28;20042;-88
2023/10/12 21:53:19;;;;;;;3.08;1.52;;;;;;;;;;10365994;28;20608;-87
2023/10/12 21:58:24;;;;;;;4.28;1.52;;;;;;;;;;10394219;28;20045;-88
2023/10/12 22:03:29;;;;;;;2.05;1.58;;;;;;;;;;10365418;28;20053;-88
2023/10/12 22:08:36;;;;;;;3.00;1.85;;;;;;;;;;10385193;28;20266;-87
2023/10/12 22:13:54;;;;;;;2.00;1.30;;;;;;;;;;10381510;28;20053;-87
2023/10/12 22:18:58;;;;;;;2.47;1.17;;;;;;;;;;10367991;28;20523;-88
2023/10/12 22:24:03;;;;;;;1.58;1.33;;;;;;;;;;10375966;28;20048;-88
2023/10/12 22:29:08;;;;;;;3.20;1.33;;;;;;;;;;10376897;28;20212;-88
2023/10/12 22:34:14;;;;;;;2.33;1.55;;;;;;;;;;10372794;28;20531;-89
2023/10/12 22:39:23;;;;;;;2.63;1.50;;;;;;;;;;10392331;28;20050;-88
2023/10/12 22:44:26;;;;;;;1.98;1.60;;;;;;;;;;10369588;28;20046;-87
2023/10/12 22:49:32;;;;;;;1.90;1.10;;;;;;;;;;10368685;28;20062;-88
2023/10/12 22:54:38;;;;;;;2.92;1.35;;;;;;;;;;10373821;28;20073;-87
2023/10/12 22:59:41;;;;;;;1.85;1.38;;;;;;;;;;10354955;28;20100;-88
2023/10/12 23:04:45;;;;;;;3.70;1.58;;;;;;;;;;10369709;28;20464;-87
2023/10/12 23:09:59;;;;;;;3.35;1.48;;;;;;;;;;10349768;28;20057;-88
2023/10/12 23:15:03;;;;;;;2.05;1.38;;;;;;;;;;10368627;28;20071;-88
2023/10/12 23:20:15;;;;;;;1.85;1.52;;;;;;;;;;10350257;28;20073;-87
2023/10/12 23:25:22;;;;;;;2.85;1.67;;;;;;;;;;10361543;28;20048;-88
2023/10/12 23:30:27;;;;;;;2.95;1.88;;;;;;;;;;10364880;28;20122;-88
2023/10/12 23:40:56;;;;;;;2.08;1.50;;;;;;;;;;10366850;28;20069;-88
2023/10/12 23:45:59;;;;;;;2.45;1.65;;;;;;;;;;10363621;28;20751;-88
2023/10/12 23:51:04;;;;;;;4.45;2.28;;;;;;;;;;10383081;28;20064;-87
2023/10/12 23:56:16;;;;;;;4.63;2.70;;;;;;;;;;10372037;28;20053;-87
